Time;durP1;ratioP1;P1;durP2;ratioP2;P2;SDS_P1;SDS_P2;PMS_P1;PMS_P2;Temp;Humidity;BMP_temperature;BMP_pressure;BME280_temperature;BME280_humidity;BME280_pressure;Samples;Min_cycle;Max_cycle;Signal;HPM_P1;HPM_P2
2023/10/25 00:00:18;;;;;;;42.00;32.00;;;;;;;11.67;100.00;98493.16;131691;1293;22824;-83
2023/10/25 00:03:18;;;;;;;44.40;32.10;;;;;;;11.65;100.00;98501.54;131600;1298;24265;-85
2023/10/25 00:06:19;;;;;;;43.30;30.40;;;;;;;11.61;100.00;98502.05;131617;1297;22649;-83
2023/10/25 00:09:19;;;;;;;39.90;29.10;;;;;;;11.59;100.00;98505.38;131599;1296;22571;-84
2023/10/25 00:12:21;;;;;;;36.50;29.20;;;;;;;11.59;100.00;98505.73;131456;1295;22723;-87
2023/10/25 00:15:21;;;;;;;38.30;29.90;;;;;;;11.60;100.00;98499.48;131214;1301;22659;-83
2023/10/25 00:18:24;;;;;;;37.30;27.00;;;;;;;11.58;100.00;98492.91;131684;1296;22595;-84
2023/10/25 00:21:24;;;;;;;35.20;26.90;;;;;;;11.58;100.00;98489.13;131418;1295;25377;-83
2023/10/25 00:24:25;;;;;;;36.40;26.90;;;;;;;11.58;100.00;98493.16;131628;1298;24267;-85
2023/10/25 00:27:26;;;;;;;38.00;27.10;;;;;;;11.58;100.00;98498.23;131543;1298;22650;-86
2023/10/25 00:30:26;;;;;;;39.20;27.80;;;;;;;11.58;100.00;98497.53;131649;1297;23960;-84
2023/10/25 00:33:27;;;;;;;39.10;28.40;;;;;;;11.58;100.00;98498.33;131705;1296;22589;-85
2023/10/25 00:36:27;;;;;;;42.40;28.90;;;;;;;11.57;100.00;98495.91;131346;1298;23775;-83
2023/10/25 00:39:28;;;;;;;44.10;29.40;;;;;;;11.57;100.00;98499.55;131326;1300;22578;-86
2023/10/25 00:42:28;;;;;;;;;;;;;;;11.55;100.00;98499.40;131351;1298;23146;-84
2023/10/25 00:45:31;;;;;;;40.50;28.60;;;;;;;11.53;100.00;98497.89;131439;1297;25271;-83
2023/10/25 00:48:33;;;;;;;46.70;30.60;;;;;;;11.52;100.00;98498.23;131594;1293;22603;-82
2023/10/25 00:51:35;;;;;;;53.20;33.50;;;;;;;11.51;100.00;98498.92;131378;1296;23319;-83
2023/10/25 00:54:36;;;;;;;54.10;35.50;;;;;;;11.50;100.00;98491.08;131528;1297;25384;-86
2023/10/25 00:57:37;;;;;;;52.10;34.10;;;;;;;11.49;100.00;98490.02;131259;1294;26330;-85
2023/10/25 01:00:38;;;;;;;52.80;33.60;;;;;;;11.46;100.00;98491.33;131503;1297;23222;-86
2023/10/25 01:03:40;;;;;;;52.90;35.60;;;;;;;11.43;100.00;98491.67;131133;1297;22764;-85
2023/10/25 01:06:41;;;;;;;57.60;36.40;;;;;;;11.40;100.00;98492.41;131273;1298;25323;-86
2023/10/25 01:09:42;;;;;;;55.10;35.60;;;;;;;11.39;100.00;98495.91;131430;1297;23052;-84
2023/10/25 01:12:42;;;;;;;57.90;36.80;;;;;;;11.38;100.00;98494.37;131437;1301;23075;-84
2023/10/25 01:15:43;;;;;;;53.00;37.10;;;;;;;11.36;100.00;98494.38;131840;1297;22586;-83
2023/10/25 01:18:44;;;;;;;56.10;36.50;;;;;;;11.36;100.00;98494.77;132032;1297;25063;-82
2023/10/25 01:21:44;;;;;;;56.30;37.00;;;;;;;11.35;100.00;98492.95;131514;1296;22563;-85
2023/10/25 01:24:45;;;;;;;;;;;;;;;11.35;100.00;98492.14;131533;1297;22785;-85
2023/10/25 01:27:45;;;;;;;58.50;36.80;;;;;;;11.34;100.00;98487.23;131212;1298;22606;-84
2023/10/25 01:30:46;;;;;;;58.30;37.70;;;;;;;11.34;100.00;98483.02;131264;1298;22550;-84
2023/10/25 01:33:51;;;;;;;55.50;35.80;;;;;;;11.33;100.00;98473.77;131593;1298;22548;-84
2023/10/25 01:36:51;;;;;;;53.90;36.20;;;;;;;11.33;100.00;98474.38;131392;1301;26237;-81
2023/10/25 01:39:52;;;;;;;51.00;36.10;;;;;;;11.33;100.00;98476.30;131491;1297;22683;-85
2023/10/25 01:42:54;;;;;;;54.00;35.80;;;;;;;11.33;100.00;98475.06;131346;1298;23153;-83
2023/10/25 01:45:54;;;;;;;50.50;34.40;;;;;;;11.33;100.00;98482.25;131402;1297;24420;-83
2023/10/25 01:48:55;;;;;;;51.40;36.00;;;;;;;11.33;100.00;98486.66;131341;1294;23338;-85
2023/10/25 01:51:57;;;;;;;50.30;34.70;;;;;;;11.34;100.00;98483.96;131533;1297;22591;-83
2023/10/25 01:54:58;;;;;;;46.60;33.10;;;;;;;11.33;100.00;98483.39;131395;1297;22600;-84
2023/10/25 01:57:58;;;;;;;44.00;31.90;;;;;;;11.32;100.00;98487.20;131629;1294;22597;-85
2023/10/25 02:01:03;;;;;;;;;;;;;;;11.31;100.00;98489.50;131608;1297;25519;-82
2023/10/25 02:04:04;;;;;;;42.20;29.30;;;;;;;11.30;100.00;98488.82;131302;1302;23330;-84
2023/10/25 02:07:05;;;;;;;44.00;30.30;;;;;;;11.28;100.00;98487.42;131602;1291;26517;-85
2023/10/25 02:10:06;;;;;;;44.20;31.10;;;;;;;11.27;100.00;98485.23;131465;1297;23947;-84
2023/10/25 02:13:07;;;;;;;39.30;27.50;;;;;;;11.28;100.00;98487.67;131784;1298;22591;-83
2023/10/25 02:16:16;;;;;;;39.60;28.40;;;;;;;11.27;100.00;98494.86;131639;1296;22608;-83
2023/10/25 02:19:17;;;;;;;39.20;29.80;;;;;;;11.26;100.00;98495.89;131383;1299;22645;-84
2023/10/25 02:22:18;;;;;;;38.20;27.70;;;;;;;11.24;100.00;98497.50;131603;1297;22594;-82
2023/10/25 02:25:19;;;;;;;37.70;28.10;;;;;;;11.24;100.00;98503.95;131625;1298;24602;-83
2023/10/25 02:28:19;;;;;;;38.00;27.90;;;;;;;11.24;100.00;98508.40;131670;1297;22569;-83
2023/10/25 02:31:20;;;;;;;40.00;28.10;;;;;;;11.24;100.00;98505.38;131663;1297;22673;-84
2023/10/25 02:34:20;;;;;;;40.40;29.40;;;;;;;11.23;100.00;98508.98;131329;1288;25399;-85
2023/10/25 02:37:21;;;;;;;34.30;27.80;;;;;;;11.22;100.00;98509.91;131519;1297;22593;-83
2023/10/25 02:40:21;;;;;;;31.70;26.30;;;;;;;11.20;100.00;98512.81;131524;1298;22582;-86
2023/10/25 02:43:22;;;;;;;31.80;23.60;;;;;;;11.20;100.00;98515.88;131299;1298;22593;-84
2023/10/25 02:46:23;;;;;;;;;;;;;;;11.19;100.00;98515.64;131272;1294;24337;-85
2023/10/25 02:49:23;;;;;;;25.60;20.30;;;;;;;11.17;100.00;98515.11;131554;1297;24229;-82
2023/10/25 02:52:24;;;;;;;24.40;20.70;;;;;;;11.16;100.00;98516.58;131395;1297;22579;-83
2023/10/25 02:55:28;;;;;;;25.60;17.80;;;;;;;11.15;100.00;98518.73;131500;1288;23930;-84
2023/10/25 02:58:29;;;;;;;16.70;14.00;;;;;;;11.13;100.00;98522.11;131087;1294;23107;-85
2023/10/25 03:01:30;;;;;;;16.40;12.00;;;;;;;11.13;100.00;98524.37;131427;1297;22590;-85
2023/10/25 03:04:30;;;;;;;14.10;11.10;;;;;;;11.11;100.00;98521.70;131413;1297;25522;-83
2023/10/25 03:07:31;;;;;;;11.50;10.30;;;;;;;11.11;100.00;98523.09;131337;1298;22610;-83
2023/10/25 03:10:32;;;;;;;11.00;9.30;;;;;;;11.12;100.00;98525.05;131243;1297;25144;-83
2023/10/25 03:13:32;;;;;;;9.70;8.70;;;;;;;11.10;100.00;98526.30;131205;1298;22609;-86
2023/10/25 03:16:33;;;;;;;10.40;9.30;;;;;;;11.10;100.00;98527.39;131165;1297;23907;-83
2023/10/25 03:19:33;;;;;;;8.60;7.50;;;;;;;11.09;100.00;98530.33;131208;1297;22605;-83
2023/10/25 03:22:34;;;;;;;10.00;7.90;;;;;;;11.08;100.00;98533.44;131521;1297;22569;-83
2023/10/25 03:25:34;;;;;;;8.10;7.30;;;;;;;11.09;100.00;98538.34;131228;1298;25470;-86
2023/10/25 03:28:35;;;;;;;8.80;7.60;;;;;;;11.09;100.00;98534.13;131257;1298;22552;-83
2023/10/25 03:31:38;;;;;;;8.10;7.20;;;;;;;11.08;100.00;98538.27;131308;1297;22557;-87
2023/10/25 03:34:38;;;;;;;8.10;6.70;;;;;;;11.07;100.00;98533.45;131146;1300;25387;-88
2023/10/25 03:37:42;;;;;;;7.60;6.30;;;;;;;11.07;100.00;98542.11;131092;1298;22558;-83
2023/10/25 03:40:44;;;;;;;7.00;5.80;;;;;;;11.06;100.00;98535.65;131237;1301;22563;-85
2023/10/25 03:43:45;;;;;;;6.80;6.10;;;;;;;11.06;100.00;98542.04;131286;1298;24254;-85
2023/10/25 03:46:47;;;;;;;;;;;;;;;11.06;100.00;98544.50;131235;1300;23880;-83
2023/10/25 03:49:52;;;;;;;7.30;5.70;;;;;;;11.06;100.00;98545.77;131431;1297;22608;-84
2023/10/25 03:52:52;;;;;;;6.80;5.90;;;;;;;11.05;100.00;98542.72;131353;1300;22582;-85
2023/10/25 03:55:56;;;;;;;6.00;5.40;;;;;;;11.05;100.00;98537.04;131393;1292;23388;-83
2023/10/25 03:58:57;;;;;;;6.20;5.30;;;;;;;11.06;100.00;98539.94;131440;1299;22614;-84
2023/10/25 04:01:57;;;;;;;7.50;5.60;;;;;;;11.06;100.00;98539.08;131488;1297;22560;-84
2023/10/25 04:04:58;;;;;;;8.40;6.60;;;;;;;11.04;100.00;98537.08;131644;1287;22574;-84
2023/10/25 04:07:58;;;;;;;9.40;7.50;;;;;;;11.06;100.00;98539.65;131454;1301;22555;-84
2023/10/25 04:10:59;;;;;;;14.50;11.00;;;;;;;11.07;100.00;98542.35;131345;1298;22726;-84
2023/10/25 04:14:00;;;;;;;17.40;12.00;;;;;;;11.07;100.00;98541.00;131705;1297;22702;-82
2023/10/25 04:17:04;;;;;;;21.00;15.30;;;;;;;11.08;100.00;98542.07;131592;1297;24367;-84
2023/10/25 04:20:04;;;;;;;;;;;;;;;11.09;100.00;98540.08;131608;1288;22554;-84
2023/10/25 04:23:05;;;;;;;38.00;24.90;;;;;;;11.09;100.00;98547.19;131630;1293;24371;-85
2023/10/25 04:26:10;;;;;;;;;;;;;;;11.08;100.00;98551.52;131291;1293;25360;-82
2023/10/25 04:29:11;;;;;;;44.50;27.60;;;;;;;11.08;100.00;98553.65;131482;1298;22599;-83
2023/10/25 04:32:11;;;;;;;52.70;30.60;;;;;;;11.09;100.00;98553.73;131665;1297;22604;-83
2023/10/25 04:35:12;;;;;;;52.00;30.90;;;;;;;11.10;100.00;98547.23;131015;1298;22591;-83
2023/10/25 04:38:13;;;;;;;64.30;36.10;;;;;;;11.10;100.00;98543.81;131322;1301;25548;-84
2023/10/25 04:41:13;;;;;;;59.00;33.60;;;;;;;11.10;100.00;98541.32;131215;1298;22559;-83
2023/10/25 04:44:14;;;;;;;50.60;32.30;;;;;;;11.11;100.00;98545.64;131534;1301;22596;-85
2023/10/25 04:47:14;;;;;;;54.50;32.70;;;;;;;11.11;100.00;98549.52;131982;1297;22561;-86
2023/10/25 04:50:15;;;;;;;46.20;30.90;;;;;;;11.12;100.00;98552.25;131197;1297;22615;-85
2023/10/25 04:53:16;;;;;;;40.70;27.60;;;;;;;11.12;100.00;98555.45;131455;1298;22593;-85
2023/10/25 04:56:22;;;;;;;40.00;27.20;;;;;;;11.13;100.00;98562.06;131571;1297;24771;-85
2023/10/25 04:59:22;;;;;;;36.00;26.00;;;;;;;11.14;100.00;98565.73;131725;1300;22586;-83
2023/10/25 05:02:23;;;;;;;;;;;;;;;11.15;100.00;98566.34;131528;1294;23743;-85
2023/10/25 05:05:23;;;;;;;36.80;24.40;;;;;;;11.16;100.00;98570.02;132733;1297;22610;-82
2023/10/25 05:08:24;;;;;;;30.50;22.60;;;;;;;11.16;100.00;98566.87;131682;1297;23063;-83
2023/10/25 05:11:29;;;;;;;32.90;23.30;;;;;;;11.15;100.00;98574.06;131758;1288;23239;-84
2023/10/25 05:14:30;;;;;;;28.20;20.40;;;;;;;11.17;100.00;98577.60;131675;1297;25469;-85
2023/10/25 05:17:32;;;;;;;27.80;20.10;;;;;;;11.17;100.00;98578.30;131506;1297;22560;-83
2023/10/25 05:20:32;;;;;;;29.20;20.70;;;;;;;11.17;100.00;98583.04;131478;1297;23375;-81
2023/10/25 05:23:34;;;;;;;26.30;20.20;;;;;;;11.18;100.00;98589.61;131382;1297;25427;-83
2023/10/25 05:26:35;;;;;;;29.20;20.80;;;;;;;11.18;100.00;98594.43;131222;1298;23019;-82
2023/10/25 05:29:36;;;;;;;27.90;20.10;;;;;;;11.18;100.00;98601.67;131275;1295;22599;-81
2023/10/25 05:32:37;;;;;;;32.20;21.50;;;;;;;11.18;100.00;98609.84;131316;1298;23070;-81
2023/10/25 05:35:39;;;;;;;30.40;21.00;;;;;;;11.18;100.00;98616.16;131303;1287;26759;-80
2023/10/25 05:38:39;;;;;;;35.90;23.70;;;;;;;11.19;100.00;98617.83;131140;1297;22553;-84
2023/10/25 05:41:40;;;;;;;;;;;;;;;11.18;100.00;98625.02;131472;1288;22563;-82
2023/10/25 05:44:41;;;;;;;35.80;23.90;;;;;;;11.18;100.00;98627.84;131038;1295;169023;-82
2023/10/25 05:47:42;;;;;;;;;;;;;;;11.18;100.00;98635.53;131268;1294;22532;-81
2023/10/25 05:50:44;;;;;;;;;;;;;;;11.18;100.00;98644.17;131137;1298;22551;-81
2023/10/25 05:53:47;;;;;;;43.70;27.50;;;;;;;11.17;100.00;98644.95;131360;1297;22666;-82
2023/10/25 05:56:48;;;;;;;43.80;28.60;;;;;;;11.17;100.00;98650.23;131510;1297;22633;-83
2023/10/25 05:59:49;;;;;;;50.50;28.80;;;;;;;11.17;100.00;98652.55;131334;1291;22588;-80
2023/10/25 06:02:54;;;;;;;44.20;28.50;;;;;;;11.18;100.00;98656.77;131565;1297;22634;-83
2023/10/25 06:06:00;;;;;;;42.50;27.40;;;;;;;11.18;100.00;98663.84;131526;1297;22568;-82
2023/10/25 06:09:01;;;;;;;40.50;27.50;;;;;;;11.17;100.00;98670.39;132659;1297;22591;-81
2023/10/25 06:12:02;;;;;;;48.10;29.50;;;;;;;11.18;100.00;98676.84;131555;1294;22608;-81
2023/10/25 06:15:06;;;;;;;49.00;29.30;;;;;;;11.18;100.00;98681.58;131240;1298;25011;-82
2023/10/25 06:18:09;;;;;;;43.50;28.30;;;;;;;11.19;100.00;98686.12;131533;1298;24058;-82
2023/10/25 06:21:09;;;;;;;50.70;28.20;;;;;;;11.20;100.00;98690.69;131478;1286;23498;-81
2023/10/25 06:24:10;;;;;;;;;;;;;;;11.21;100.00;98699.27;131632;1297;22565;-82
2023/10/25 06:27:10;;;;;;;43.10;26.00;;;;;;;11.21;100.00;98698.41;131633;1285;22596;-84
2023/10/25 06:30:11;;;;;;;45.90;28.80;;;;;;;11.22;100.00;98700.63;131369;1294;24746;-80
2023/10/25 06:33:12;;;;;;;45.20;27.30;;;;;;;11.22;100.00;98705.40;131524;1282;22595;-85
2023/10/25 06:36:13;;;;;;;40.50;26.90;;;;;;;11.21;100.00;98708.63;131089;1297;24427;-83
2023/10/25 06:39:14;;;;;;;47.50;29.20;;;;;;;11.21;100.00;98706.92;131323;1291;24513;-80
2023/10/25 06:42:14;;;;;;;;;;;;;;;11.21;100.00;98705.37;131205;1288;23490;-81
2023/10/25 06:45:15;;;;;;;47.80;28.00;;;;;;;11.20;100.00;98708.78;131343;1296;23528;-80
2023/10/25 06:48:16;;;;;;;43.60;26.80;;;;;;;11.22;100.00;98710.38;131248;1287;22550;-81
2023/10/25 06:51:17;;;;;;;41.00;27.70;;;;;;;11.23;100.00;98707.20;131240;1291;22593;-81
2023/10/25 06:54:18;;;;;;;41.90;27.30;;;;;;;11.25;100.00;98706.79;131277;1295;22588;-82
2023/10/25 06:57:19;;;;;;;39.70;26.30;;;;;;;11.27;100.00;98704.83;131380;1292;23688;-81
2023/10/25 07:00:22;;;;;;;43.60;27.40;;;;;;;11.29;100.00;98703.05;131084;1298;23120;-82
2023/10/25 07:03:34;;;;;;;41.10;26.60;;;;;;;11.31;100.00;98697.42;131174;1294;22577;-82
2023/10/25 07:06:35;;;;;;;40.50;26.60;;;;;;;11.36;100.00;98697.91;131311;1288;25350;-81
2023/10/25 07:09:36;;;;;;;38.70;26.20;;;;;;;11.39;100.00;98694.23;131206;1290;23282;-81
2023/10/25 07:12:36;;;;;;;;;;;;;;;11.42;100.00;98690.83;131256;1294;23677;-81
2023/10/25 07:15:37;;;;;;;41.50;27.60;;;;;;;11.45;100.00;98691.29;131414;1291;22555;-80
2023/10/25 07:18:37;;;;;;;41.40;27.40;;;;;;;11.48;100.00;98690.30;131431;1291;22653;-81
2023/10/25 07:21:38;;;;;;;39.00;25.30;;;;;;;11.48;100.00;98691.15;131315;1298;22593;-80
2023/10/25 07:24:38;;;;;;;40.90;25.50;;;;;;;11.50;100.00;98695.52;131463;1294;22553;-82
2023/10/25 07:27:39;;;;;;;36.80;24.60;;;;;;;11.50;100.00;98702.70;131344;1288;25552;-81
2023/10/25 07:30:40;;;;;;;34.20;23.40;;;;;;;11.51;100.00;98704.55;131419;1297;22574;-81
2023/10/25 07:33:40;;;;;;;38.30;24.10;;;;;;;11.53;100.00;98706.06;131201;1288;23855;-81
2023/10/25 07:36:41;;;;;;;31.30;21.70;;;;;;;11.53;100.00;98707.86;131217;1294;24662;-81
2023/10/25 07:39:41;;;;;;;35.40;22.20;;;;;;;11.51;100.00;98708.76;131528;1298;24285;-82
2023/10/25 07:42:42;;;;;;;35.50;22.90;;;;;;;11.51;100.00;98713.73;131528;1288;24231;-81
2023/10/25 07:45:42;;;;;;;32.30;20.60;;;;;;;11.50;100.00;98716.85;131560;1293;24281;-82
2023/10/25 07:48:44;;;;;;;25.80;18.60;;;;;;;11.50;100.00;98725.67;131552;1297;23562;-81
2023/10/25 07:51:44;;;;;;;28.00;19.00;;;;;;;11.49;100.00;98729.65;131499;1291;23007;-82
2023/10/25 07:54:45;;;;;;;26.50;17.80;;;;;;;11.45;100.00;98735.73;131450;1292;22696;-81
2023/10/25 07:57:46;;;;;;;;;;;;;;;11.44;100.00;98735.94;131430;1289;23225;-81
2023/10/25 08:00:47;;;;;;;20.10;13.90;;;;;;;11.41;100.00;98743.14;131453;1283;22565;-83
2023/10/25 08:03:48;;;;;;;21.10;14.60;;;;;;;11.40;100.00;98743.13;131462;1297;22595;-80
2023/10/25 08:06:48;;;;;;;20.00;14.30;;;;;;;11.40;100.00;98742.77;131301;1294;22563;-82
2023/10/25 08:09:49;;;;;;;18.30;13.50;;;;;;;11.39;100.00;98746.32;131409;1297;22626;-82
2023/10/25 08:12:49;;;;;;;;;;;;;;;11.38;100.00;98749.96;131436;1291;25498;-81
2023/10/25 08:16:03;;;;;;;16.60;11.50;;;;;;;11.39;100.00;98746.20;131561;1292;23044;-82
2023/10/25 08:19:03;;;;;;;20.20;12.60;;;;;;;11.40;100.00;98745.83;131250;1291;25394;-80
2023/10/25 08:22:08;;;;;;;17.20;12.50;;;;;;;11.43;100.00;98744.04;131488;1298;22947;-82
2023/10/25 08:25:09;;;;;;;16.30;12.10;;;;;;;11.46;100.00;98750.88;131535;1297;22558;-81
2023/10/25 08:28:09;;;;;;;14.20;10.80;;;;;;;11.48;100.00;98755.38;131353;1290;22582;-81
2023/10/25 08:31:13;;;;;;;19.20;11.40;;;;;;;11.49;100.00;98757.89;131416;1298;22587;-80
2023/10/25 08:34:14;;;;;;;12.70;10.40;;;;;;;11.47;100.00;98758.13;131328;1294;22575;-81
2023/10/25 08:37:15;;;;;;;20.00;12.00;;;;;;;11.45;100.00;98763.31;131251;1288;22568;-81
2023/10/25 08:40:15;;;;;;;13.30;10.10;;;;;;;11.44;100.00;98766.41;131212;1288;22568;-80
2023/10/25 08:43:16;;;;;;;13.30;10.10;;;;;;;11.44;100.00;98765.31;131214;1294;22671;-82
2023/10/25 08:46:19;;;;;;;12.00;10.30;;;;;;;11.44;100.00;98764.41;131013;1297;22599;-81
2023/10/25 08:49:19;;;;;;;11.70;9.60;;;;;;;11.46;100.00;98765.00;130961;1297;22682;-82
2023/10/25 08:52:27;;;;;;;14.00;11.30;;;;;;;11.48;100.00;98766.79;131082;1289;22578;-83
2023/10/25 08:55:28;;;;;;;11.10;9.70;;;;;;;11.48;100.00;98766.66;131173;1291;22670;-80
2023/10/25 08:58:28;;;;;;;10.30;8.90;;;;;;;11.47;100.00;98769.81;131316;1288;22548;-82
2023/10/25 09:01:30;;;;;;;;;;;;;;;11.41;100.00;98771.53;131296;1296;22526;-82
2023/10/25 09:04:30;;;;;;;11.80;7.30;;;;;;;11.36;100.00;98770.55;131307;1296;22585;-81
2023/10/25 09:07:33;;;;;;;8.00;7.20;;;;;;;11.32;100.00;98773.23;131141;1298;25407;-82
2023/10/25 09:10:33;;;;;;;9.20;7.40;;;;;;;11.30;100.00;98768.23;131249;1297;22592;-81
2023/10/25 09:13:37;;;;;;;8.30;7.50;;;;;;;11.28;100.00;98773.98;131525;1297;22539;-81
2023/10/25 09:16:42;;;;;;;7.20;6.30;;;;;;;11.26;100.00;98768.91;131492;1298;22616;-83
2023/10/25 09:19:44;;;;;;;7.20;6.50;;;;;;;11.23;100.00;98776.06;131619;1297;25432;-81
2023/10/25 09:22:45;;;;;;;7.40;6.60;;;;;;;11.21;100.00;98773.48;131545;1295;22593;-81
2023/10/25 09:25:46;;;;;;;7.90;6.90;;;;;;;11.17;100.00;98778.76;131459;1291;24264;-81
2023/10/25 09:28:52;;;;;;;8.20;7.00;;;;;;;11.16;100.00;98776.55;131343;1294;22555;-81
2023/10/25 09:31:53;;;;;;;9.50;6.80;;;;;;;11.17;100.00;98777.77;131305;1297;24317;-80
2023/10/25 09:34:54;;;;;;;11.20;6.90;;;;;;;11.17;100.00;98782.17;131287;1298;22559;-82
2023/10/25 09:37:54;;;;;;;10.60;7.10;;;;;;;11.18;100.00;98787.83;131301;1293;22587;-85
2023/10/25 09:40:58;;;;;;;7.00;6.20;;;;;;;11.24;100.00;98790.00;131440;1294;22557;-80
2023/10/25 09:44:00;;;;;;;7.50;6.80;;;;;;;11.29;100.00;98794.77;131480;1288;25419;-80
2023/10/25 09:47:07;;;;;;;6.00;5.00;;;;;;;11.34;100.00;98789.67;131724;1297;22687;-81
2023/10/25 09:50:17;;;;;;;5.70;5.20;;;;;;;11.37;100.00;98790.98;131374;1294;25411;-81
2023/10/25 09:53:23;;;;;;;5.70;4.80;;;;;;;11.44;100.00;98791.30;131582;1298;22061;-84
2023/10/25 09:56:23;;;;;;;8.00;5.10;;;;;;;11.51;100.00;98797.72;131563;1298;25313;-83
2023/10/25 09:59:26;;;;;;;7.90;5.60;;;;;;;11.55;100.00;98799.11;131248;1297;25444;-82
2023/10/25 10:02:48;;;;;;;6.10;4.80;;;;;;;11.59;100.00;98797.30;131469;1298;22679;-82
2023/10/25 10:05:58;;;;;;;9.00;5.20;;;;;;;11.60;100.00;98793.92;131461;1297;24278;-81
2023/10/25 10:09:05;;;;;;;4.70;4.30;;;;;;;11.60;100.00;98793.60;131489;1294;22640;-83
2023/10/25 10:12:07;;;;;;;7.50;4.20;;;;;;;11.61;100.00;98789.84;131665;1297;22596;-85
2023/10/25 10:15:08;;;;;;;6.10;4.70;;;;;;;11.63;100.00;98792.52;131522;1298;22647;-83
2023/10/25 10:18:10;;;;;;;5.00;4.50;;;;;;;11.69;100.00;98796.17;131365;1292;22569;-83
2023/10/25 10:21:14;;;;;;;4.20;3.60;;;;;;;11.75;100.00;98797.17;131682;1297;24552;-81
2023/10/25 10:24:56;;;;;;;8.30;4.50;;;;;;;11.83;100.00;98799.37;131729;1292;24191;-81
2023/10/25 10:28:00;;;;;;;6.10;3.40;;;;;;;11.93;100.00;98791.78;131476;1291;22616;-81
2023/10/25 10:31:01;;;;;;;5.40;3.50;;;;;;;11.99;100.00;98789.15;131488;1297;24256;-84
2023/10/25 10:34:02;;;;;;;3.60;3.30;;;;;;;12.03;100.00;98792.95;131577;1295;22571;-84
2023/10/25 10:37:10;;;;;;;4.00;3.50;;;;;;;12.09;100.00;98794.08;131521;1295;25335;-82
2023/10/25 10:40:12;;;;;;;3.70;3.40;;;;;;;12.17;100.00;98793.27;131451;1295;23317;-82
2023/10/25 10:43:12;;;;;;;4.00;3.50;;;;;;;12.24;100.00;98788.35;131601;1298;23928;-82
2023/10/25 10:46:13;;;;;;;3.40;3.10;;;;;;;12.33;100.00;98782.81;131684;1289;22766;-84
2023/10/25 10:49:16;;;;;;;;;;;;;;;12.45;100.00;98779.14;131443;1297;22553;-83
2023/10/25 10:52:16;;;;;;;3.90;2.80;;;;;;;12.53;100.00;98778.32;131689;1298;22555;-82
2023/10/25 10:55:21;;;;;;;4.60;3.60;;;;;;;12.63;100.00;98773.45;131281;1294;22595;-81
2023/10/25 10:58:22;;;;;;;4.00;3.50;;;;;;;12.74;100.00;98775.80;131081;1291;22558;-81
2023/10/25 11:01:22;;;;;;;7.20;3.40;;;;;;;12.81;100.00;98774.61;131187;1298;25330;-82
2023/10/25 11:04:23;;;;;;;3.30;3.00;;;;;;;12.86;100.00;98777.29;131211;1298;22724;-80
2023/10/25 11:07:24;;;;;;;;;;;;;;;12.91;100.00;98772.67;131379;1292;25250;-82
2023/10/25 11:10:24;;;;;;;4.00;3.00;;;;;;;12.97;100.00;98763.88;131519;1285;22653;-81
2023/10/25 11:13:28;;;;;;;3.80;3.50;;;;;;;12.98;100.00;98768.75;131437;1295;22620;-81
2023/10/25 11:16:29;;;;;;;6.00;3.50;;;;;;;12.99;100.00;98773.56;131472;1298;22642;-81
2023/10/25 11:19:33;;;;;;;5.10;3.00;;;;;;;13.04;100.00;98776.48;131521;1301;24882;-81
2023/10/25 11:22:36;;;;;;;3.90;3.50;;;;;;;13.08;100.00;98778.66;131405;1289;23641;-81
2023/10/25 11:25:37;;;;;;;4.30;3.90;;;;;;;13.15;100.00;98779.84;133671;1298;22599;-82
2023/10/25 11:28:41;;;;;;;3.90;3.50;;;;;;;13.24;100.00;98778.64;131111;1290;23332;-82
2023/10/25 11:31:51;;;;;;;4.70;4.00;;;;;;;13.30;100.00;98779.14;131591;1292;22577;-82
2023/10/25 11:35:04;;;;;;;4.70;4.20;;;;;;;13.39;100.00;98779.24;131386;1300;22612;-81
2023/10/25 11:38:05;;;;;;;4.90;4.10;;;;;;;13.44;100.00;98783.70;131284;1298;23221;-83
2023/10/25 11:41:06;;;;;;;6.00;4.10;;;;;;;13.38;100.00;98786.38;131434;1288;22662;-81
2023/10/25 11:44:09;;;;;;;5.50;4.00;;;;;;;13.30;100.00;98790.14;131464;1291;22564;-82
2023/10/25 11:47:17;;;;;;;5.00;4.50;;;;;;;13.22;99.66;98784.46;131436;1298;22576;-80
2023/10/25 11:50:18;;;;;;;4.70;4.20;;;;;;;13.12;99.35;98782.95;131769;1292;22632;-81
2023/10/25 11:53:18;;;;;;;7.60;4.60;;;;;;;13.03;99.57;98783.13;131371;1296;24658;-81
2023/10/25 11:56:21;;;;;;;8.40;4.80;;;;;;;12.97;99.64;98785.42;131307;1289;22561;-83
2023/10/25 11:59:22;;;;;;;7.20;4.60;;;;;;;12.95;99.92;98783.37;131401;1297;22585;-81
2023/10/25 12:02:24;;;;;;;5.90;4.90;;;;;;;12.95;100.00;98787.39;131297;1298;23683;-82
2023/10/25 12:05:26;;;;;;;5.00;4.00;;;;;;;12.98;100.00;98787.45;131287;1292;26542;-82
2023/10/25 12:08:27;;;;;;;5.00;4.40;;;;;;;13.00;100.00;98783.80;131297;1295;22533;-82
2023/10/25 12:11:28;;;;;;;5.90;4.30;;;;;;;13.01;100.00;98784.09;131649;1297;22600;-81
2023/10/25 12:14:28;;;;;;;6.70;4.80;;;;;;;13.00;99.70;98780.73;131489;1291;23163;-82
2023/10/25 12:17:29;;;;;;;6.60;4.80;;;;;;;12.95;99.76;98778.39;131378;1297;22591;-82
2023/10/25 12:20:29;;;;;;;5.50;4.80;;;;;;;12.92;99.62;98773.98;131392;1298;25319;-82
2023/10/25 12:23:31;;;;;;;4.00;3.60;;;;;;;12.92;99.64;98775.27;131532;1298;24269;-81
2023/10/25 12:26:32;;;;;;;6.30;4.50;;;;;;;12.90;99.18;98770.39;131186;1294;22684;-81
2023/10/25 12:29:33;;;;;;;6.90;4.90;;;;;;;12.91;99.34;98772.43;131137;1301;22574;-82
2023/10/25 12:32:34;;;;;;;5.70;4.70;;;;;;;12.93;99.48;98767.99;131328;1289;24171;-81
2023/10/25 12:35:34;;;;;;;7.60;4.70;;;;;;;12.95;99.27;98763.15;131506;1290;24238;-82
2023/10/25 12:38:35;;;;;;;4.80;3.90;;;;;;;12.96;98.59;98764.58;131010;1292;22620;-82
2023/10/25 12:41:35;;;;;;;8.50;4.30;;;;;;;12.94;98.41;98768.55;131329;1283;22645;-81
2023/10/25 12:44:36;;;;;;;8.50;4.20;;;;;;;12.94;98.50;98769.50;131336;1295;22583;-82
2023/10/25 12:47:37;;;;;;;4.60;3.90;;;;;;;12.95;98.77;98765.07;131200;1298;22551;-83
2023/10/25 12:50:37;;;;;;;7.00;4.70;;;;;;;13.02;99.15;98764.33;131185;1299;22560;-83
2023/10/25 12:53:38;;;;;;;;;;;;;;;13.06;98.58;98763.95;131329;1295;22580;-82
2023/10/25 12:56:38;;;;;;;4.80;4.10;;;;;;;13.10;98.74;98759.45;131323;1288;25708;-81
2023/10/25 12:59:39;;;;;;;;;;;;;;;13.31;99.48;98759.09;131583;1288;22586;-81
2023/10/25 13:02:39;;;;;;;4.60;3.80;;;;;;;13.63;99.84;98750.62;131553;1297;22565;-82
2023/10/25 13:05:55;;;;;;;6.40;3.60;;;;;;;13.93;98.53;98738.86;131565;1295;22552;-82
2023/10/25 13:09:06;;;;;;;8.90;4.50;;;;;;;14.15;98.28;98734.19;131910;1298;22626;-82
2023/10/25 13:12:09;;;;;;;4.00;3.70;;;;;;;14.28;96.90;98729.89;131370;1289;22556;-82
2023/10/25 13:15:10;;;;;;;6.00;4.40;;;;;;;14.33;96.08;98732.45;131321;1295;22558;-82
2023/10/25 13:18:12;;;;;;;4.10;3.40;;;;;;;14.36;95.16;98733.69;131590;1288;22703;-81
2023/10/25 13:21:12;;;;;;;3.70;3.40;;;;;;;14.38;94.07;98736.50;131487;1297;22552;-82
2023/10/25 13:24:13;;;;;;;3.50;3.20;;;;;;;14.37;93.50;98734.95;131713;1288;22567;-82
2023/10/25 13:27:13;;;;;;;;;;;;;;;14.40;93.24;98731.02;131680;1290;22572;-81
2023/10/25 13:30:14;;;;;;;4.40;3.60;;;;;;;14.41;92.70;98731.90;131563;1297;25169;-81
2023/10/25 13:33:15;;;;;;;;;;;;;;;14.46;92.91;98729.33;131685;1297;22565;-80
2023/10/25 13:36:15;;;;;;;3.70;3.40;;;;;;;14.48;91.94;98725.73;131924;1295;22553;-81
2023/10/25 13:39:16;;;;;;;4.10;3.40;;;;;;;14.42;91.05;98720.23;131573;1298;26419;-81
2023/10/25 13:42:17;;;;;;;;;;;;;;;14.39;90.76;98718.71;131627;1297;22597;-80
2023/10/25 13:45:17;;;;;;;4.40;3.30;;;;;;;14.36;90.73;98712.50;131538;1288;22613;-81
2023/10/25 13:48:18;;;;;;;;;;;;;;;14.34;90.38;98709.15;131538;1292;22533;-82
2023/10/25 13:51:18;;;;;;;7.80;4.60;;;;;;;14.36;90.47;98701.46;131642;1297;22682;-81
2023/10/25 13:54:20;;;;;;;6.70;4.50;;;;;;;14.36;90.23;98698.27;131617;1297;27382;-82